Time;durP1;ratioP1;P1;durP2;ratioP2;P2;SDS_P1;SDS_P2;PMS_P1;PMS_P2;Temp;Humidity;BMP_temperature;BMP_pressure;BME280_temperature;BME280_humidity;BME280_pressure;Samples;Min_cycle;Max_cycle;Signal;HPM_P1;HPM_P2
2022/11/15 00:04:49;;;;;;;35.70;21.45;;;;;;;5.43;100.00;100701.44;12903071;22;20008;-87
2022/11/15 00:09:50;;;;;;;36.25;21.92;;;;;;;5.97;100.00;100790.00;12893897;22;20000;-86
2022/11/15 00:14:50;;;;;;;34.42;22.20;;;;;;;5.82;100.00;100789.50;12921779;22;20014;-86
2022/11/15 00:19:51;;;;;;;37.35;21.75;;;;;;;6.39;100.00;100910.50;12894977;22;20019;-86
2022/11/15 00:24:51;;;;;;;33.88;21.30;;;;;;;4.50;100.00;100599.38;12897218;22;20012;-86
2022/11/15 00:29:52;;;;;;;37.13;22.00;;;;;;;4.90;100.00;100740.91;12920326;22;20050;-86
2022/11/15 00:34:53;;;;;;;40.30;23.17;;;;;;;5.14;100.00;100790.28;12890924;22;20012;-85
2022/11/15 00:39:54;;;;;;;37.92;21.98;;;;;;;3.92;100.00;100615.88;12856291;22;20051;-86
2022/11/15 00:44:54;;;;;;;38.95;22.63;;;;;;;4.68;100.00;100731.41;12927032;22;20047;-86
2022/11/15 00:49:55;;;;;;;43.30;23.92;;;;;;;5.45;100.00;100902.19;12923524;22;20011;-87
2022/11/15 00:54:55;;;;;;;41.78;24.55;;;;;;;4.71;100.00;100752.78;12895721;22;20011;-87
2022/11/15 00:59:56;;;;;;;43.83;22.95;;;;;;;3.91;100.00;100617.78;12922525;22;20430;-87
2022/11/15 01:04:57;;;;;;;41.33;23.05;;;;;;;4.08;100.00;100699.81;12828186;22;20087;-87
2022/11/15 01:09:57;;;;;;;39.53;22.83;;;;;;;4.68;100.00;100775.03;12920785;22;20007;-86
2022/11/15 01:14:58;;;;;;;39.72;22.63;;;;;;;4.06;100.00;100661.06;12887697;22;20004;-87
2022/11/15 01:19:59;;;;;;;40.58;24.30;;;;;;;4.18;100.00;100680.31;12902958;22;20058;-86
2022/11/15 01:25:01;;;;;;;41.42;24.38;;;;;;;4.36;100.00;100683.16;12908474;22;20587;-87
2022/11/15 01:30:01;;;;;;;51.25;28.65;;;;;;;4.36;100.00;100652.31;12898676;22;20069;-85
2022/11/15 01:35:02;;;;;;;47.90;27.67;;;;;;;5.11;100.00;100733.44;12924823;22;20003;-85
2022/11/15 01:40:03;;;;;;;44.90;25.48;;;;;;;4.38;100.00;100577.47;12898733;22;20444;-86
2022/11/15 01:45:04;;;;;;;43.13;24.90;;;;;;;5.13;100.00;100676.75;12897649;22;20004;-86
2022/11/15 01:50:09;;;;;;;39.88;23.02;;;;;;;4.79;100.00;100597.88;12923203;22;20030;-86
2022/11/15 01:55:10;;;;;;;42.40;23.02;;;;;;;5.62;100.00;100725.00;12899635;22;20000;-86
2022/11/15 02:00:12;;;;;;;38.40;23.55;;;;;;;5.76;100.00;100725.69;12923156;22;20011;-86
2022/11/15 02:05:12;;;;;;;38.00;21.88;;;;;;;5.50;100.00;100611.25;12896550;22;20129;-86
2022/11/15 02:10:18;;;;;;;38.10;22.63;;;;;;;5.33;100.00;100592.75;12894094;22;20057;-86
2022/11/15 02:15:18;;;;;;;36.70;21.75;;;;;;;5.25;100.00;100565.78;12909185;22;20320;-85
2022/11/15 02:21:06;;;;;;;41.67;22.83;;;;;;;6.64;100.00;100749.06;12851484;22;20020;-86
2022/11/15 02:26:09;;;;;;;;;;;;;;;6.69;100.00;100761.19;12918070;22;20019;-86
2022/11/15 02:31:29;;;;;;;40.65;20.88;;;;;;;6.74;100.00;100767.66;12895797;22;19915;-86
2022/11/15 02:36:52;;;;;;;36.42;20.20;;;;;;;6.79;100.00;100764.22;12875137;22;20149;-86
2022/11/15 02:41:54;;;;;;;34.33;21.35;;;;;;;6.25;100.00;100682.88;12943713;22;20024;-86
2022/11/15 02:47:16;;;;;;;41.20;22.55;;;;;;;6.64;100.00;100718.97;12863205;22;20008;-86
2022/11/15 02:52:23;;;;;;;36.75;20.92;;;;;;;5.24;100.00;100504.03;12885916;22;20004;-86
2022/11/15 02:57:33;;;;;;;34.90;19.90;;;;;;;5.69;100.00;100560.22;12920035;22;20333;-86
2022/11/15 03:02:52;;;;;;;33.85;20.77;;;;;;;6.56;100.00;100702.88;12868725;22;20015;-85
2022/11/15 03:08:05;;;;;;;38.22;22.30;;;;;;;6.97;100.00;100744.19;12881328;22;20026;-86
2022/11/15 03:13:27;;;;;;;37.72;19.83;;;;;;;6.76;100.00;100748.25;12926878;22;20046;-85
2022/11/15 03:18:36;;;;;;;36.28;19.83;;;;;;;5.54;100.00;100528.69;12877905;22;20065;-86
2022/11/15 03:23:38;;;;;;;36.53;19.95;;;;;;;5.59;100.00;100549.81;12845938;22;20022;-86
2022/11/15 03:28:42;;;;;;;33.00;19.02;;;;;;;5.78;100.00;100591.59;12891289;22;20007;-86
2022/11/15 03:33:46;;;;;;;36.78;20.10;;;;;;;5.15;100.00;100431.75;12891586;22;20034;-86
2022/11/15 03:38:46;;;;;;;40.08;20.52;;;;;;;5.91;100.00;100593.31;12893724;22;20385;-86
2022/11/15 03:43:55;;;;;;;47.05;22.58;;;;;;;6.00;100.00;100602.91;12892626;22;20027;-86
2022/11/15 03:49:04;;;;;;;57.78;23.85;;;;;;;5.81;100.00;100561.09;12925270;22;20003;-86
2022/11/15 03:54:05;;;;;;;56.60;24.05;;;;;;;5.93;100.00;100569.34;12880042;22;20369;-86
2022/11/15 03:59:05;;;;;;;51.15;23.40;;;;;;;5.76;100.00;100519.97;12937394;22;20061;-86
2022/11/15 04:04:06;;;;;;;51.58;23.13;;;;;;;6.71;100.00;100682.47;12853597;22;20511;-86
2022/11/15 04:09:07;;;;;;;48.83;23.77;;;;;;;6.29;100.00;100595.78;12866328;22;20004;-86
2022/11/15 04:14:07;;;;;;;49.22;25.58;;;;;;;6.30;100.00;100613.00;12904349;22;20007;-86
2022/11/15 04:24:27;;;;;;;50.35;23.67;;;;;;;5.59;100.00;100467.91;12854702;22;20023;-86
2022/11/15 04:29:34;;;;;;;49.03;24.08;;;;;;;6.39;100.00;100619.81;12859031;22;20038;-86
2022/11/15 04:34:35;;;;;;;55.45;26.58;;;;;;;6.37;100.00;100625.53;12895773;22;20437;-86
2022/11/15 04:39:35;;;;;;;60.30;26.75;;;;;;;5.78;100.00;100513.22;12922418;22;20000;-86
2022/11/15 04:44:36;;;;;;;64.75;27.58;;;;;;;6.70;100.00;100667.97;12898172;22;20034;-87
2022/11/15 04:49:39;;;;;;;61.55;27.92;;;;;;;6.60;100.00;100646.63;12932550;22;20019;-86
2022/11/15 04:54:41;;;;;;;61.58;28.40;;;;;;;6.91;100.00;100704.06;12924061;22;20019;-86
2022/11/15 04:59:42;;;;;;;64.55;28.35;;;;;;;5.95;100.00;100513.41;12910858;22;20051;-86
2022/11/15 05:04:42;;;;;;;58.75;29.02;;;;;;;6.11;100.00;100532.97;12879804;22;20036;-86
2022/11/15 05:09:43;;;;;;;71.03;31.58;;;;;;;7.01;100.00;100658.63;12885707;22;20019;-87
2022/11/15 05:14:44;;;;;;;71.55;32.80;;;;;;;5.69;100.00;100470.91;12911123;22;20011;-86
2022/11/15 05:19:44;;;;;;;82.85;35.22;;;;;;;6.54;100.00;100584.66;12907013;22;20000;-87
2022/11/15 05:24:45;;;;;;;79.65;36.22;;;;;;;6.70;100.00;100607.78;12883260;22;20406;-87
2022/11/15 05:29:45;;;;;;;89.90;39.33;;;;;;;5.57;100.00;100408.03;12870120;22;20024;-87
2022/11/15 05:34:46;;;;;;;97.88;39.83;;;;;;;7.04;100.00;100614.34;12894224;22;20004;-87
2022/11/15 05:39:46;;;;;;;99.68;40.70;;;;;;;7.15;100.00;100641.97;12919256;22;20066;-87
2022/11/15 05:44:48;;;;;;;107.30;41.42;;;;;;;7.08;100.00;100618.25;12919014;22;20015;-87
2022/11/15 05:49:48;;;;;;;101.70;41.88;;;;;;;7.28;100.00;100644.47;12893804;22;20010;-87
2022/11/15 05:54:49;;;;;;;104.38;42.17;;;;;;;7.56;100.00;100659.34;12893220;22;20004;-87
2022/11/15 05:59:49;;;;;;;99.68;42.72;;;;;;;7.64;100.00;100694.59;12892122;22;20004;-87
2022/11/15 06:04:50;;;;;;;96.68;40.63;;;;;;;6.71;100.00;100490.97;12892296;22;20456;-87
2022/11/15 06:09:50;;;;;;;102.47;40.42;;;;;;;7.43;100.00;100633.03;12941795;22;20000;-86
2022/11/15 06:14:51;;;;;;;88.40;38.47;;;;;;;7.39;100.00;100618.16;12891196;22;20345;-86
2022/11/15 06:19:51;;;;;;;95.90;39.88;;;;;;;7.48;100.00;100611.22;12890098;22;20016;-87
2022/11/15 06:24:52;;;;;;;85.32;36.67;;;;;;;7.38;100.00;100611.84;12915707;22;20453;-87
2022/11/15 06:29:52;;;;;;;88.63;36.65;;;;;;;7.78;100.00;100646.69;12915426;22;20024;-87
2022/11/15 06:34:53;;;;;;;84.13;37.17;;;;;;;7.18;100.00;100559.38;12891223;22;20031;-87
2022/11/15 06:39:54;;;;;;;81.28;35.83;;;;;;;7.76;100.00;100635.13;12916074;22;20426;-86
2022/11/15 06:44:54;;;;;;;73.75;34.80;;;;;;;8.12;100.00;100684.38;12890912;22;20495;-87
2022/11/15 06:49:55;;;;;;;67.70;33.00;;;;;;;6.84;100.00;100457.88;12940052;22;20020;-87
2022/11/15 06:54:55;;;;;;;70.22;33.53;;;;;;;8.23;100.00;100713.69;12888245;22;20000;-87
2022/11/15 06:59:56;;;;;;;66.35;32.95;;;;;;;8.12;100.00;100684.38;12914800;22;20043;-87
2022/11/15 07:04:56;;;;;;;64.32;32.92;;;;;;;7.85;100.00;100636.44;12889128;22;20074;-86
2022/11/15 07:09:57;;;;;;;54.83;30.70;;;;;;;7.94;100.00;100619.56;12917221;22;20034;-87
2022/11/15 07:14:57;;;;;;;63.17;33.00;;;;;;;7.92;100.00;100632.69;12942866;22;20418;-87
2022/11/15 07:19:57;;;;;;;65.03;32.33;;;;;;;8.43;100.00;100683.09;12939771;22;20057;-87
2022/11/15 07:24:58;;;;;;;63.40;30.08;;;;;;;8.29;100.00;100657.88;12940734;22;20019;-88
2022/11/15 07:29:58;;;;;;;57.35;31.38;;;;;;;9.11;100.00;100793.09;12890167;22;20019;-87
2022/11/15 07:34:59;;;;;;;53.30;28.67;;;;;;;8.45;100.00;100672.72;12890574;22;20495;-87
2022/11/15 07:39:59;;;;;;;49.13;26.88;;;;;;;8.81;100.00;100731.03;12890582;22;20008;-86
2022/11/15 07:45:00;;;;;;;52.80;27.85;;;;;;;8.74;100.00;100692.75;12888467;22;20445;-87
2022/11/15 07:50:01;;;;;;;49.90;27.38;;;;;;;8.19;100.00;100622.03;12939549;22;20491;-86
2022/11/15 07:55:01;;;;;;;45.25;26.02;;;;;;;8.29;100.00;100590.13;12888176;22;20079;-87
2022/11/15 08:00:03;;;;;;;48.85;26.33;;;;;;;8.95;100.00;100698.59;12939306;22;20434;-86
2022/11/15 08:05:04;;;;;;;38.75;23.77;;;;;;;9.00;100.00;100706.94;12914398;22;20094;-86
2022/11/15 08:10:06;;;;;;;47.75;24.75;;;;;;;8.51;100.00;100589.44;12919872;22;20074;-87
2022/11/15 08:15:07;;;;;;;44.38;25.08;;;;;;;9.08;100.00;100665.34;12894733;22;20388;-83
2022/11/15 08:20:08;;;;;;;42.50;24.60;;;;;;;9.02;100.00;100655.34;12913704;22;20000;-84
2022/11/15 08:25:09;;;;;;;39.28;23.10;;;;;;;8.99;100.00;100618.25;12942234;22;20008;-86
2022/11/15 08:30:11;;;;;;;40.15;23.25;;;;;;;9.38;100.00;100643.00;12918500;22;20024;-86
2022/11/15 08:35:11;;;;;;;40.42;22.70;;;;;;;10.22;100.00;100751.94;12893721;22;20004;-86
2022/11/15 08:40:13;;;;;;;43.00;23.98;;;;;;;9.58;100.00;100616.91;12918387;22;20010;-86
2022/11/15 08:45:14;;;;;;;33.83;20.38;;;;;;;9.65;100.00;100621.16;12893192;22;20012;-86
2022/11/15 08:50:15;;;;;;;33.15;21.17;;;;;;;10.49;100.00;100729.19;12916800;22;20008;-87
2022/11/15 08:55:16;;;;;;;32.20;20.10;;;;;;;10.75;100.00;100760.63;12893571;22;20430;-86
2022/11/15 09:00:16;;;;;;;31.27;20.67;;;;;;;9.87;100.00;100607.38;12892530;22;20083;-86
2022/11/15 09:05:18;;;;;;;36.20;22.38;;;;;;;9.85;100.00;100551.81;12891692;22;20011;-84
2022/11/15 09:10:18;;;;;;;36.45;20.55;;;;;;;10.28;100.00;100642.81;12917026;22;20015;-86
2022/11/15 09:15:19;;;;;;;34.25;20.45;;;;;;;10.79;100.00;100684.66;12892865;22;20000;-85
2022/11/15 09:20:20;;;;;;;33.08;21.90;;;;;;;10.18;100.00;100612.41;12916051;22;20015;-85
2022/11/15 09:25:20;;;;;;;44.35;22.63;;;;;;;10.29;100.00;100620.56;12893575;22;19995;-86
2022/11/15 09:30:21;;;;;;;39.53;21.65;;;;;;;10.80;100.00;100674.47;12892208;22;20070;-87
2022/11/15 09:35:22;;;;;;;36.05;21.92;;;;;;;10.78;100.00;100663.72;12917713;22;20031;-84
2022/11/15 09:40:22;;;;;;;39.00;22.23;;;;;;;10.67;100.00;100640.75;12942767;22;20007;-86
2022/11/15 09:45:37;;;;;;;37.28;21.98;;;;;;;10.55;100.00;100651.09;12891012;22;20324;-87
2022/11/15 09:50:49;;;;;;;31.58;19.50;;;;;;;10.40;100.00;100605.00;12891132;22;20062;-87
2022/11/15 09:56:18;;;;;;;34.80;20.83;;;;;;;11.16;100.00;100721.63;12892465;22;20459;-86
2022/11/15 10:01:53;;;;;;;31.92;20.48;;;;;;;10.59;100.00;100652.25;12931803;22;20061;-87
2022/11/15 10:07:02;;;;;;;34.00;21.38;;;;;;;10.45;100.00;100632.53;12895044;22;20380;-84
2022/11/15 10:12:04;;;;;;;32.60;20.48;;;;;;;10.65;100.00;100661.38;12891702;22;20061;-84
2022/11/15 10:17:23;;;;;;;30.08;19.20;;;;;;;11.06;100.00;100678.28;12891975;22;20003;-84
2022/11/15 10:22:28;;;;;;;26.10;18.77;;;;;;;11.01;100.00;100701.09;12940997;22;20028;-86
2022/11/15 10:27:29;;;;;;;29.25;20.02;;;;;;;10.02;100.00;100542.66;12895126;22;20008;-86
2022/11/15 10:32:29;;;;;;;26.63;18.77;;;;;;;10.67;100.00;100629.75;12891331;22;20023;-85
2022/11/15 10:37:31;;;;;;;29.00;20.63;;;;;;;10.72;100.00;100642.72;12891573;22;20429;-85
2022/11/15 10:42:31;;;;;;;29.13;20.05;;;;;;;11.20;100.00;100707.03;12890306;22;20338;-85
2022/11/15 10:47:32;;;;;;;28.20;20.58;;;;;;;10.78;100.00;100616.91;12914381;22;20011;-85
2022/11/15 10:52:34;;;;;;;29.13;20.85;;;;;;;11.22;100.00;100659.94;12914974;22;20415;-86
2022/11/15 10:57:38;;;;;;;32.83;19.77;;;;;;;11.36;100.00;100660.34;12890675;22;20011;-84
2022/11/15 11:02:41;;;;;;;28.33;20.27;;;;;;;10.99;100.00;100604.13;12890886;22;20323;-85
2022/11/15 11:07:43;;;;;;;30.13;19.17;;;;;;;10.42;100.00;100516.69;12917452;22;20000;-85
2022/11/15 11:12:43;;;;;;;29.70;19.15;;;;;;;10.56;100.00;100570.16;12890047;22;20004;-85
2022/11/15 11:18:18;;;;;;;27.08;18.92;;;;;;;11.50;100.00;100651.31;12913474;22;19996;-86
2022/11/15 11:23:25;;;;;;;27.20;18.23;;;;;;;11.66;100.00;100651.44;12914866;22;20020;-85
2022/11/15 11:28:48;;;;;;;24.17;18.13;;;;;;;11.75;100.00;100663.63;12939302;22;20027;-85
2022/11/15 11:34:19;;;;;;;25.13;17.38;;;;;;;11.01;100.00;100505.53;12923948;22;20019;-86
2022/11/15 11:39:31;;;;;;;26.58;18.83;;;;;;;11.26;100.00;100573.72;12944283;22;20015;-86
2022/11/15 11:44:52;;;;;;;21.65;16.10;;;;;;;11.27;100.00;100520.28;12939852;22;20098;-86
2022/11/15 11:50:18;;;;;;;19.98;16.50;;;;;;;11.18;100.00;100454.91;12891592;22;20004;-86
2022/11/15 11:55:32;;;;;;;19.80;15.40;;;;;;;10.87;100.00;100367.47;12939253;22;20141;-86
2022/11/15 12:00:35;;;;;;;18.38;14.38;;;;;;;11.75;100.00;100444.91;12889555;22;20024;-86
2022/11/15 12:05:41;;;;;;;12.38;10.25;;;;;;;12.55;100.00;100506.00;12889659;22;20011;-86
2022/11/15 12:10:41;;;;;;;9.68;8.40;;;;;;;12.85;100.00;100516.19;12915931;22;19996;-87
2022/11/15 12:15:45;;;;;;;13.02;7.93;;;;;;;12.01;100.00;100407.16;12890188;22;20326;-86
2022/11/15 12:21:26;;;;;;;14.05;7.85;;;;;;;12.10;100.00;100485.56;12890309;22;20107;-85
2022/11/15 12:26:31;;;;;;;10.13;6.53;;;;;;;11.18;100.00;100388.78;12916559;22;20053;-86
2022/11/15 12:31:35;;;;;;;9.68;5.93;;;;;;;11.87;100.00;100507.00;12878231;22;20069;-86
2022/11/15 12:36:40;;;;;;;11.55;6.53;;;;;;;12.11;100.00;100569.97;12941051;22;20007;-86
2022/11/15 12:41:42;;;;;;;9.80;6.40;;;;;;;11.65;100.00;100454.00;12891740;22;20046;-85
2022/11/15 12:46:45;;;;;;;9.60;5.50;;;;;;;13.01;100.00;100576.97;12889513;22;20010;-86
2022/11/15 12:51:49;;;;;;;6.13;4.10;;;;;;;13.61;100.00;100566.91;12940767;22;20008;-86
2022/11/15 12:57:07;;;;;;;7.10;3.92;;;;;;;13.88;100.00;100547.13;12944358;22;20034;-87
2022/11/15 13:02:18;;;;;;;5.35;2.80;;;;;;;13.73;100.00;100476.13;12943011;22;20011;-87
2022/11/15 13:07:39;;;;;;;5.75;3.63;;;;;;;14.12;100.00;100532.63;12918471;22;19999;-87
2022/11/15 13:12:46;;;;;;;4.47;3.15;;;;;;;13.82;100.00;100537.22;12944331;22;20083;-86
2022/11/15 13:17:53;;;;;;;10.00;3.65;;;;;;;12.56;100.00;100448.84;12943336;22;20441;-86
2022/11/15 13:23:12;;;;;;;7.20;3.58;;;;;;;12.22;100.00;100457.69;12943746;22;20016;-83
2022/11/15 13:28:16;;;;;;;4.72;3.38;;;;;;;12.90;100.00;100568.69;12893472;22;20000;-88
2022/11/15 13:33:22;;;;;;;5.35;2.78;;;;;;;12.07;100.00;100414.34;12942962;22;20035;-87
2022/11/15 13:38:28;;;;;;;7.47;2.92;;;;;;;12.51;100.00;100388.94;12895430;22;20079;-87
2022/11/15 13:43:34;;;;;;;6.90;3.20;;;;;;;12.40;100.00;100315.50;12895571;22;20090;-86
2022/11/15 13:48:34;;;;;;;3.80;2.53;;;;;;;12.43;100.00;100393.09;12917357;22;20422;-86
2022/11/15 13:53:35;;;;;;;6.22;2.88;;;;;;;12.56;100.00;100462.66;12900520;22;20016;-88
2022/11/15 13:58:38;;;;;;;6.55;2.97;;;;;;;10.86;100.00;100227.28;12888305;22;20004;-88
2022/11/15 14:03:46;;;;;;;4.45;2.15;;;;;;;12.49;100.00;100518.16;12899250;22;20429;-87
2022/11/15 14:09:09;;;;;;;12.82;2.50;;;;;;;10.80;100.00;100261.44;12837250;22;20088;-89
2022/11/15 14:14:11;;;;;;;5.82;2.13;;;;;;;11.76;100.00;100430.88;12918527;22;20012;-88
2022/11/15 14:19:32;;;;;;;6.28;2.45;;;;;;;11.00;100.00;100319.31;12940802;22;20052;-88
2022/11/15 14:24:32;;;;;;;6.47;2.60;;;;;;;11.29;100.00;100418.06;12925956;22;20094;-88
2022/11/15 14:29:33;;;;;;;6.95;2.63;;;;;;;10.09;100.00;100218.72;12890883;22;20078;-88
2022/11/15 14:34:33;;;;;;;6.05;2.75;;;;;;;10.75;100.00;100341.25;12889829;22;20019;-87
2022/11/15 14:39:34;;;;;;;4.38;2.80;;;;;;;10.64;100.00;100363.22;12890208;22;20000;-87
2022/11/15 14:44:34;;;;;;;4.28;2.80;;;;;;;10.61;100.00;100355.50;12890903;22;20022;-88
2022/11/15 14:49:35;;;;;;;5.38;4.05;;;;;;;10.25;100.00;100348.91;12889360;22;20003;-89
2022/11/15 14:54:35;;;;;;;5.15;2.70;;;;;;;9.58;100.00;100259.63;12915103;22;20031;-88
2022/11/15 14:59:36;;;;;;;5.10;2.83;;;;;;;9.63;100.00;100289.88;12876431;22;20070;-88
2022/11/15 15:04:36;;;;;;;8.65;3.70;;;;;;;9.45;100.00;100282.91;12890409;22;20315;-89
2022/11/15 15:09:37;;;;;;;5.75;3.42;;;;;;;9.46;100.00;100321.06;12914017;22;20062;-88
2022/11/15 15:14:38;;;;;;;5.55;3.55;;;;;;;9.75;100.00;100395.00;12888299;22;20066;-89
2022/11/15 15:19:38;;;;;;;4.65;3.15;;;;;;;8.96;100.00;100304.91;12872186;22;20318;-88
2022/11/15 15:24:39;;;;;;;6.22;3.95;;;;;;;7.69;100.00;100144.00;12890179;22;20027;-88
2022/11/15 15:29:40;;;;;;;7.50;3.97;;;;;;;8.59;100.00;100338.50;12890372;22;21025;-88
2022/11/15 15:34:43;;;;;;;5.75;3.60;;;;;;;8.22;100.00;100284.22;12875558;22;20459;-88
2022/11/15 15:39:43;;;;;;;5.85;4.00;;;;;;;8.40;100.00;100357.16;12874856;22;20004;-88
2022/11/15 15:44:44;;;;;;;5.35;4.25;;;;;;;7.09;100.00;100148.31;12889274;22;20009;-88
2022/11/15 15:49:44;;;;;;;10.18;4.70;;;;;;;8.45;100.00;100369.06;12888250;22;20000;-87
2022/11/15 15:54:45;;;;;;;7.97;4.97;;;;;;;7.63;100.00;100238.16;12888872;22;20015;-88
2022/11/15 15:59:45;;;;;;;6.70;4.57;;;;;;;7.53;100.00;100243.47;12887428;22;20015;-88
2022/11/15 16:04:46;;;;;;;8.10;5.55;;;;;;;7.54;100.00;100228.66;12860799;22;20020;-88
2022/11/15 16:10:02;;;;;;;7.13;5.47;;;;;;;7.60;100.00;100238.63;12874074;22;20010;-88
2022/11/15 16:15:03;;;;;;;9.27;5.40;;;;;;;7.06;100.00;100157.81;12875003;22;20087;-88
2022/11/15 16:20:04;;;;;;;10.55;6.25;;;;;;;7.40;100.00;100182.47;12884440;22;20023;-87
2022/11/15 16:25:05;;;;;;;8.65;6.20;;;;;;;6.79;100.00;100064.63;12872228;22;20087;-88
2022/11/15 16:30:10;;;;;;;9.27;6.63;;;;;;;7.18;100.00;100143.25;12860727;22;20318;-87
2022/11/15 16:35:15;;;;;;;9.23;5.55;;;;;;;7.32;100.00;100193.84;12838187;22;20022;-88
2022/11/15 16:40:30;;;;;;;11.65;6.93;;;;;;;7.78;100.00;100268.50;12914779;22;20011;-88
2022/11/15 16:45:31;;;;;;;10.98;6.88;;;;;;;6.54;100.00;100095.13;12918924;22;20031;-88
2022/11/15 16:50:38;;;;;;;9.07;5.97;;;;;;;6.95;100.00;100158.75;12893032;22;19999;-88
2022/11/15 16:55:39;;;;;;;7.70;5.72;;;;;;;6.42;100.00;100075.22;12901337;22;20045;-88
2022/11/15 17:00:39;;;;;;;8.18;6.00;;;;;;;7.79;100.00;100266.59;12892501;22;20378;-87
2022/11/15 17:05:40;;;;;;;8.52;5.65;;;;;;;8.19;100.00;100337.66;12917394;22;20032;-87
2022/11/15 17:10:40;;;;;;;9.13;5.38;;;;;;;7.04;100.00;100102.50;12879689;22;20019;-87
2022/11/15 17:15:41;;;;;;;6.70;4.75;;;;;;;7.23;100.00;100157.00;12889952;22;20361;-88
2022/11/15 17:20:42;;;;;;;8.27;5.03;;;;;;;8.61;100.00;100367.34;12889725;22;20503;-87
2022/11/15 17:25:42;;;;;;;5.85;4.40;;;;;;;7.28;100.00;100176.25;12874336;22;20042;-88
2022/11/15 17:30:43;;;;;;;10.32;4.43;;;;;;;7.16;100.00;100137.19;12900990;22;20471;-88
2022/11/15 17:35:43;;;;;;;5.95;4.72;;;;;;;6.76;100.00;100061.53;12868241;22;20015;-87
2022/11/15 17:40:44;;;;;;;6.32;3.25;;;;;;;7.16;100.00;100120.75;12864423;22;20007;-89
2022/11/15 17:45:44;;;;;;;8.73;3.20;;;;;;;6.96;100.00;100088.41;12846025;22;20370;-89
2022/11/15 17:50:56;;;;;;;4.18;2.88;;;;;;;8.63;100.00;100318.53;12875571;22;20023;-89
2022/11/15 17:56:03;;;;;;;6.32;2.92;;;;;;;6.99;100.00;100061.38;12902323;22;20489;-88
2022/11/15 18:01:27;;;;;;;5.72;2.80;;;;;;;7.89;100.00;100171.63;12890773;22;20015;-88
2022/11/15 18:06:29;;;;;;;4.55;2.53;;;;;;;6.98;100.00;100039.72;12915084;22;20004;-90
2022/11/15 18:11:33;;;;;;;6.65;2.55;;;;;;;8.87;100.00;100285.34;12892159;22;20000;-89
2022/11/15 18:16:35;;;;;;;4.80;2.70;;;;;;;7.47;100.00;100086.44;12878321;22;20385;-89
2022/11/15 18:21:54;;;;;;;3.95;2.38;;;;;;;7.31;100.00;100066.22;12844738;22;20065;-89
2022/11/15 18:26:56;;;;;;;3.55;2.78;;;;;;;7.79;100.00;100121.34;12857055;22;20388;-89
2022/11/15 18:31:57;;;;;;;5.35;2.78;;;;;;;7.15;100.00;100028.75;12880511;22;20024;-88
2022/11/15 18:36:59;;;;;;;4.10;3.00;;;;;;;7.85;100.00;100131.31;12868902;22;20018;-89
2022/11/15 18:41:59;;;;;;;5.47;3.25;;;;;;;6.87;100.00;99989.50;12836310;22;20028;-89
2022/11/15 18:47:00;;;;;;;6.93;3.50;;;;;;;7.15;100.00;100042.44;12864254;22;20019;-89
2022/11/15 18:52:03;;;;;;;4.93;3.03;;;;;;;7.55;100.00;100071.47;12856729;22;20002;-88
2022/11/15 18:57:04;;;;;;;7.57;3.63;;;;;;;8.19;100.00;100170.38;12894492;22;20062;-88
2022/11/15 19:02:05;;;;;;;6.55;3.50;;;;;;;8.40;100.00;100189.81;12855483;22;20105;-88
2022/11/15 19:07:05;;;;;;;4.78;3.55;;;;;;;7.70;100.00;100048.91;12919732;22;20011;-88
2022/11/15 19:12:06;;;;;;;7.32;3.22;;;;;;;8.31;100.00;100177.63;12885969;22;20011;-89
2022/11/15 19:17:56;;;;;;;5.57;3.65;;;;;;;8.87;100.00;100230.44;12661888;23;20008;-89
2022/11/15 19:22:59;;;;;;;4.63;3.65;;;;;;;7.65;100.00;100097.09;12566984;22;20027;-88
2022/11/15 19:28:02;;;;;;;7.00;4.45;;;;;;;7.61;100.00;100059.50;12797958;22;20023;-88
2022/11/15 19:33:08;;;;;;;6.30;3.50;;;;;;;7.08;100.00;99985.97;12753421;22;20022;-86
2022/11/15 19:38:13;;;;;;;6.75;4.00;;;;;;;7.68;100.00;100040.94;12673958;22;20806;-87
2022/11/15 19:43:14;;;;;;;5.95;4.05;;;;;;;7.44;100.00;99939.03;12823720;22;21618;-87
2022/11/15 19:48:22;;;;;;;4.65;3.72;;;;;;;7.65;100.00;99953.81;12746375;22;20003;-87
2022/11/15 19:53:23;;;;;;;7.95;4.13;;;;;;;7.30;100.00;99856.47;12668534;22;20004;-87
2022/11/15 19:58:26;;;;;;;7.03;4.70;;;;;;;8.12;100.00;99997.00;12716794;22;20039;-86
2022/11/15 20:03:31;;;;;;;5.30;3.67;;;;;;;7.91;100.00;99902.81;12788026;22;20020;-87
2022/11/15 20:08:57;;;;;;;;;;;;;;;;;;;;;
2022/11/15 20:14:38;;;;;;;7.13;4.32;;;;;;;9.33;100.00;100126.47;12641866;22;20041;-88
2022/11/15 20:19:41;;;;;;;5.75;3.50;;;;;;;8.32;100.00;99951.69;12817764;22;20007;-88
2022/11/15 20:24:55;;;;;;;5.63;3.72;;;;;;;8.15;100.00;99925.22;12768294;22;20096;-90
2022/11/15 20:30:54;;;;;;;5.50;3.72;;;;;;;9.63;100.00;100134.09;12720100;22;20075;-89
2022/11/15 20:35:57;;;;;;;8.20;3.47;;;;;;;8.75;100.00;99980.84;12798287;22;20026;-88
2022/11/15 20:41:07;;;;;;;6.80;4.05;;;;;;;8.87;100.00;100016.34;12780511;22;20028;-89
2022/11/15 20:46:54;;;;;;;6.25;3.63;;;;;;;10.06;100.00;100178.81;12738978;22;20007;-88
2022/11/15 20:52:19;;;;;;;7.03;4.15;;;;;;;8.24;100.00;99920.06;12675850;23;20390;-89
2022/11/15 20:58:13;;;;;;;8.30;4.47;;;;;;;8.88;100.00;99996.84;12558948;23;20115;-89
2022/11/15 21:03:46;;;;;;;7.38;4.63;;;;;;;9.41;100.00;100122.41;12684143;23;20510;-88
2022/11/15 21:14:18;;;;;;;6.80;4.38;;;;;;;8.48;100.00;99935.09;12791276;22;20118;-87
2022/11/15 21:19:20;;;;;;;6.28;4.30;;;;;;;8.82;100.00;99972.38;12896212;22;20011;-87
2022/11/15 21:24:24;;;;;;;8.43;4.80;;;;;;;9.42;100.00;100091.09;12814579;22;20022;-87
2022/11/15 21:29:25;;;;;;;6.97;4.47;;;;;;;8.70;100.00;99975.28;12860096;22;20011;-87
2022/11/15 21:34:29;;;;;;;8.00;4.80;;;;;;;8.85;100.00;99980.09;12819313;22;20020;-87
2022/11/15 21:39:30;;;;;;;6.93;4.20;;;;;;;8.12;100.00;99864.59;12793250;22;20030;-91
2022/11/15 21:44:31;;;;;;;6.50;4.18;;;;;;;8.71;100.00;99951.44;12932433;22;20016;-90
2022/11/15 21:49:43;;;;;;;5.18;4.20;;;;;;;9.22;100.00;100059.66;12826291;22;20018;-90
2022/11/15 21:54:46;;;;;;;7.45;4.68;;;;;;;8.81;100.00;99978.97;12791840;22;20000;-90
2022/11/15 22:05:07;;;;;;;5.82;4.28;;;;;;;9.35;100.00;100085.84;12872244;22;20081;-90
2022/11/15 22:10:10;;;;;;;9.10;5.03;;;;;;;8.68;100.00;99953.63;12924923;22;20061;-91
2022/11/15 22:15:13;;;;;;;8.57;5.35;;;;;;;7.94;100.00;99863.06;12882174;22;20367;-90
2022/11/15 22:20:15;;;;;;;6.72;5.03;;;;;;;7.85;100.00;99814.25;12866253;22;20011;-90
2022/11/15 22:25:18;;;;;;;8.77;5.82;;;;;;;9.26;100.00;100059.94;12922949;22;20019;-89
2022/11/15 22:30:24;;;;;;;8.48;6.03;;;;;;;8.51;100.00;99963.09;12859021;22;20113;-89
2022/11/15 22:35:51;;;;;;;9.27;5.80;;;;;;;8.14;100.00;99909.84;12859683;22;20054;-90
2022/11/15 22:40:58;;;;;;;8.95;6.80;;;;;;;7.31;100.00;99762.28;12783402;22;20015;-91
2022/11/15 22:46:12;;;;;;;9.88;7.07;;;;;;;9.14;100.00;100051.09;12823297;22;20033;-90
2022/11/15 22:51:21;;;;;;;13.77;7.68;;;;;;;8.97;100.00;100053.97;12832428;22;20041;-90
2022/11/15 22:56:33;;;;;;;9.20;6.88;;;;;;;8.40;100.00;99967.66;12798470;22;20042;-90
2022/11/15 23:01:46;;;;;;;13.50;7.80;;;;;;;9.11;100.00;100054.38;12786658;22;20030;-91
2022/11/15 23:06:49;;;;;;;18.75;9.43;;;;;;;8.85;100.00;100007.53;12754377;22;20012;-89
2022/11/15 23:17:32;;;;;;;14.75;9.48;;;;;;;9.13;100.00;100030.22;12648360;22;20039;-86
2022/11/15 23:22:48;;;;;;;12.05;8.65;;;;;;;8.76;100.00;99996.19;12852979;22;20015;-88
2022/11/15 23:28:09;;;;;;;21.27;10.63;;;;;;;7.34;100.00;99758.22;12779362;22;20067;-90
2022/11/15 23:33:56;;;;;;;16.10;11.05;;;;;;;8.33;100.00;99942.34;12726966;22;20027;-87